Time;durP1;ratioP1;P1;durP2;ratioP2;P2;SDS_P1;SDS_P2;PMS_P1;PMS_P2;Temp;Humidity;BMP_temperature;BMP_pressure;BME280_temperature;BME280_humidity;BME280_pressure;Samples;Min_cycle;Max_cycle;Signal;HPM_P1;HPM_P2
2022/06/21 00:02:25;;;;;;;4.00;2.25;;;12.20;99.90;;;;;;4971264;28;20054;-76
2022/06/21 00:04:53;;;;;;;2.42;2.15;;;12.20;99.90;;;;;;4986437;28;20488;-73
2022/06/21 00:07:23;;;;;;;4.47;2.22;;;12.10;99.90;;;;;;4966666;28;20049;-75
2022/06/21 00:09:49;;;;;;;2.78;1.90;;;12.10;99.90;;;;;;4976102;28;20540;-74
2022/06/21 00:12:16;;;;;;;3.28;2.13;;;12.10;99.90;;;;;;4971560;28;20042;-76
2022/06/21 00:14:42;;;;;;;3.88;2.00;;;12.20;99.90;;;;;;4970669;28;20406;-75
2022/06/21 00:17:17;;;;;;;5.05;2.17;;;12.20;99.90;;;;;;4966852;28;20113;-75
2022/06/21 00:19:43;;;;;;;4.57;2.88;;;12.20;99.90;;;;;;4966467;28;20046;-74
2022/06/21 00:22:18;;;;;;;2.80;1.88;;;12.30;99.90;;;;;;4977749;28;20536;-74
2022/06/21 00:24:44;;;;;;;5.25;2.45;;;12.30;99.90;;;;;;4974199;28;20145;-76
2022/06/21 00:27:16;;;;;;;3.75;2.05;;;12.30;99.90;;;;;;4977352;28;20045;-76
2022/06/21 00:29:42;;;;;;;5.82;2.13;;;12.30;99.90;;;;;;4983666;28;20100;-75
2022/06/21 00:32:16;;;;;;;5.75;2.58;;;12.30;99.90;;;;;;4981131;28;20054;-75
2022/06/21 00:34:44;;;;;;;2.65;2.10;;;12.30;99.90;;;;;;4968644;28;20587;-76
2022/06/21 00:37:21;;;;;;;4.03;2.70;;;12.30;99.90;;;;;;4980516;28;20073;-74
2022/06/21 00:39:47;;;;;;;4.47;2.00;;;12.30;99.90;;;;;;4986227;28;20081;-76
2022/06/21 00:42:24;;;;;;;4.75;2.50;;;12.30;99.90;;;;;;4989218;28;20058;-76
2022/06/21 00:45:07;;;;;;;5.40;2.35;;;12.30;99.90;;;;;;4968558;28;20128;-75
2022/06/21 00:47:43;;;;;;;5.32;2.38;;;12.20;99.90;;;;;;4974749;28;20469;-76
2022/06/21 00:50:31;;;;;;;6.10;1.70;;;12.20;99.90;;;;;;4974463;28;20042;-76
2022/06/21 00:53:03;;;;;;;5.95;2.50;;;12.10;99.90;;;;;;4971748;28;20054;-76
2022/06/21 00:55:38;;;;;;;2.13;2.03;;;12.00;99.90;;;;;;4974462;28;20813;-74
2022/06/21 00:58:05;;;;;;;3.22;2.15;;;12.00;99.90;;;;;;4967841;28;20058;-76
2022/06/21 01:00:36;;;;;;;2.58;1.77;;;12.00;99.90;;;;;;4981972;28;20049;-76
2022/06/21 01:03:08;;;;;;;3.00;2.67;;;11.90;99.90;;;;;;4969694;28;20669;-75
2022/06/21 01:05:38;;;;;;;4.85;2.33;;;11.90;99.90;;;;;;4984779;28;20060;-75
2022/06/21 01:08:04;;;;;;;5.05;1.90;;;11.80;99.90;;;;;;4973596;28;20109;-76
2022/06/21 01:10:31;;;;;;;3.40;1.95;;;11.80;99.90;;;;;;4955992;28;20045;-75
2022/06/21 01:13:01;;;;;;;3.47;2.33;;;11.90;99.90;;;;;;4982895;28;20196;-76
2022/06/21 01:15:31;;;;;;;1.98;1.80;;;11.90;99.90;;;;;;4987841;28;20069;-76
2022/06/21 01:18:03;;;;;;;6.13;2.53;;;11.90;99.90;;;;;;4989772;28;20049;-76
2022/06/21 01:20:33;;;;;;;3.10;2.15;;;11.90;99.90;;;;;;4987797;28;20872;-76
2022/06/21 01:23:36;;;;;;;2.20;1.65;;;11.80;99.90;;;;;;4971914;28;20077;-75
2022/06/21 01:26:31;;;;;;;2.60;2.40;;;11.80;99.90;;;;;;4980575;28;20159;-76
2022/06/21 01:28:58;;;;;;;2.90;2.65;;;11.80;99.90;;;;;;4975991;28;20585;-75
2022/06/21 01:31:24;;;;;;;2.70;2.28;;;11.70;99.90;;;;;;4994308;28;20045;-76
2022/06/21 01:33:50;;;;;;;6.07;1.80;;;11.70;99.90;;;;;;4975745;28;20791;-74
2022/06/21 01:36:28;;;;;;;2.53;1.95;;;11.80;99.90;;;;;;4991550;28;20125;-75
2022/06/21 01:38:59;;;;;;;3.90;1.92;;;11.70;99.90;;;;;;4972151;28;20050;-76
2022/06/21 01:41:29;;;;;;;2.38;2.00;;;11.60;99.90;;;;;;4969638;28;20042;-76
2022/06/21 01:43:59;;;;;;;2.30;1.50;;;11.60;99.90;;;;;;4956827;28;20046;-76
2022/06/21 01:46:30;;;;;;;4.68;2.15;;;11.50;99.90;;;;;;4982548;28;20049;-76
2022/06/21 01:49:01;;;;;;;3.58;2.08;;;11.50;99.90;;;;;;4984402;28;20065;-74
2022/06/21 01:51:38;;;;;;;2.25;1.83;;;11.50;99.90;;;;;;4983922;28;20043;-76
2022/06/21 01:54:08;;;;;;;5.78;1.88;;;11.50;99.90;;;;;;4977309;28;20129;-76
2022/06/21 01:56:38;;;;;;;4.50;2.40;;;11.40;99.90;;;;;;4969718;28;20050;-75
2022/06/21 01:59:21;;;;;;;4.22;2.08;;;11.40;99.90;;;;;;4977673;28;20180;-76
2022/06/21 02:01:53;;;;;;;7.28;2.80;;;11.30;99.90;;;;;;4984282;28;20494;-74
2022/06/21 02:04:22;;;;;;;2.65;1.90;;;11.10;99.90;;;;;;4976709;28;20053;-76
2022/06/21 02:06:51;;;;;;;3.35;1.70;;;11.10;99.90;;;;;;4979076;28;20057;-76
2022/06/21 02:09:22;;;;;;;2.45;1.77;;;11.00;99.90;;;;;;4971589;28;20055;-74
2022/06/21 02:12:15;;;;;;;3.88;2.00;;;10.90;99.90;;;;;;4968331;28;20049;-76
2022/06/21 02:14:55;;;;;;;4.82;2.10;;;10.90;99.90;;;;;;4972948;28;20069;-75
2022/06/21 02:17:29;;;;;;;6.20;2.70;;;10.90;99.90;;;;;;4966188;28;20233;-76
2022/06/21 02:20:16;;;;;;;4.15;1.55;;;10.90;99.90;;;;;;4985794;28;20132;-75
2022/06/21 02:22:42;;;;;;;5.00;2.22;;;10.90;99.90;;;;;;4974332;28;20062;-73
2022/06/21 02:25:22;;;;;;;2.38;2.17;;;10.80;99.90;;;;;;4988649;28;20089;-76
2022/06/21 02:27:50;;;;;;;3.88;1.77;;;10.80;99.90;;;;;;4974006;28;20128;-73
2022/06/21 02:30:20;;;;;;;3.45;2.25;;;10.80;99.90;;;;;;4983949;28;20089;-76
2022/06/21 02:32:47;;;;;;;4.90;2.10;;;10.80;99.90;;;;;;4977775;28;20054;-73
2022/06/21 02:35:29;;;;;;;5.88;2.38;;;10.80;99.90;;;;;;4976748;28;20046;-76
2022/06/21 02:37:59;;;;;;;3.03;2.10;;;10.80;99.90;;;;;;4971510;28;20046;-75
2022/06/21 02:40:38;;;;;;;5.90;2.47;;;10.70;99.90;;;;;;4977987;28;20053;-75
2022/06/21 02:43:19;;;;;;;2.70;2.05;;;10.70;99.90;;;;;;4979202;28;20092;-75
2022/06/21 02:45:54;;;;;;;2.88;2.40;;;10.70;99.90;;;;;;4976040;28;20046;-75
2022/06/21 02:48:28;;;;;;;4.78;2.95;;;10.70;99.90;;;;;;4984078;28;20085;-76
2022/06/21 02:50:59;;;;;;;4.68;2.88;;;10.70;99.90;;;;;;4982495;28;20588;-74
2022/06/21 02:53:33;;;;;;;4.47;2.80;;;10.70;99.90;;;;;;4970517;28;20786;-75
2022/06/21 02:56:18;;;;;;;4.63;3.45;;;10.70;99.90;;;;;;4977131;28;20050;-76
2022/06/21 02:58:48;;;;;;;3.17;2.70;;;10.60;99.90;;;;;;4983234;28;20050;-75
2022/06/21 03:01:42;;;;;;;3.00;2.20;;;10.60;99.90;;;;;;4972874;28;20085;-78
2022/06/21 03:04:17;;;;;;;5.80;3.00;;;10.60;99.90;;;;;;4975700;28;20093;-76
2022/06/21 03:06:43;;;;;;;8.07;3.28;;;10.60;99.90;;;;;;4978899;28;20397;-75
2022/06/21 03:09:16;;;;;;;4.13;2.70;;;10.60;99.90;;;;;;4959906;28;20054;-74
2022/06/21 03:11:44;;;;;;;7.05;2.95;;;10.60;99.90;;;;;;4976280;28;20058;-74
2022/06/21 03:14:23;;;;;;;6.13;2.50;;;10.60;99.90;;;;;;4970284;28;20054;-76
2022/06/21 03:16:50;;;;;;;5.60;2.80;;;10.60;99.90;;;;;;4970062;28;20048;-73
2022/06/21 03:19:28;;;;;;;4.05;2.30;;;10.50;99.90;;;;;;4986255;28;20049;-76
2022/06/21 03:21:55;;;;;;;6.38;2.35;;;10.50;99.90;;;;;;4968772;28;21316;-75
2022/06/21 03:24:23;;;;;;;3.00;2.70;;;10.50;99.90;;;;;;4973906;28;20260;-76
2022/06/21 03:27:13;;;;;;;5.55;3.00;;;10.40;99.90;;;;;;4982674;28;20046;-75
2022/06/21 03:29:38;;;;;;;5.72;2.53;;;10.40;99.90;;;;;;4962368;28;20054;-75
2022/06/21 03:32:05;;;;;;;2.03;1.92;;;10.30;99.90;;;;;;4976888;28;20057;-75
2022/06/21 03:34:32;;;;;;;2.28;2.08;;;10.30;99.90;;;;;;4976454;28;20125;-75
2022/06/21 03:37:00;;;;;;;5.88;2.50;;;10.30;99.90;;;;;;4978559;28;20096;-75
2022/06/21 03:42:33;;;;;;;3.85;2.17;;;10.30;99.90;;;;;;4954215;28;20050;-76
2022/06/21 03:45:12;;;;;;;4.55;2.78;;;10.20;99.90;;;;;;4980013;28;20050;-76
2022/06/21 03:47:51;;;;;;;5.47;2.47;;;10.30;99.90;;;;;;4976625;28;20132;-75
2022/06/21 03:50:29;;;;;;;5.53;2.45;;;10.30;99.90;;;;;;4960781;28;20062;-76
2022/06/21 03:53:22;;;;;;;2.83;2.63;;;10.40;99.90;;;;;;4986548;28;20491;-76
2022/06/21 03:56:10;;;;;;;3.47;2.58;;;10.50;99.90;;;;;;4965074;28;20089;-76
2022/06/21 03:59:11;;;;;;;3.33;3.00;;;10.50;99.90;;;;;;4971125;28;20050;-75
2022/06/21 04:02:03;;;;;;;3.50;2.35;;;10.60;99.90;;;;;;4964268;28;20063;-73
2022/06/21 04:04:39;;;;;;;3.85;2.53;;;10.60;99.90;;;;;;4969886;28;20806;-75
2022/06/21 04:07:24;;;;;;;5.10;3.10;;;10.60;99.90;;;;;;4980829;28;20593;-76
2022/06/21 04:10:08;;;;;;;4.20;3.17;;;10.70;99.90;;;;;;4980547;28;20105;-76
2022/06/21 04:12:57;;;;;;;9.55;3.28;;;10.70;99.90;;;;;;4983011;28;20472;-75
2022/06/21 04:15:27;;;;;;;4.60;3.15;;;10.70;99.90;;;;;;4975748;28;20562;-76
2022/06/21 04:18:01;;;;;;;3.13;2.83;;;10.70;99.90;;;;;;4985823;28;20053;-76
2022/06/21 04:20:49;;;;;;;3.45;2.80;;;10.70;99.90;;;;;;4985012;28;20118;-76
2022/06/21 04:23:19;;;;;;;5.75;4.15;;;10.80;99.90;;;;;;4979144;28;20189;-75
2022/06/21 04:26:03;;;;;;;3.25;2.95;;;10.80;99.90;;;;;;4982408;28;20093;-76
2022/06/21 04:28:41;;;;;;;5.80;3.85;;;10.90;99.90;;;;;;4981210;28;20108;-74
2022/06/21 04:31:19;;;;;;;9.30;3.47;;;11.00;99.90;;;;;;4988315;28;20050;-75
2022/06/21 04:34:04;;;;;;;3.67;2.85;;;11.10;99.90;;;;;;4951755;28;20097;-75
2022/06/21 04:36:42;;;;;;;5.15;3.70;;;11.20;99.90;;;;;;4973903;28;20371;-76
2022/06/21 04:39:20;;;;;;;4.72;3.53;;;11.30;99.90;;;;;;4974135;28;20624;-76
2022/06/21 04:42:11;;;;;;;6.10;3.42;;;11.30;99.90;;;;;;4966161;28;20050;-75
2022/06/21 04:45:03;;;;;;;9.43;4.70;;;11.40;99.90;;;;;;4970155;28;20058;-73
2022/06/21 04:47:31;;;;;;;3.53;3.22;;;11.40;99.90;;;;;;4966386;28;20128;-76
2022/06/21 04:50:23;;;;;;;3.67;3.38;;;11.50;99.90;;;;;;4984998;28;20077;-75
2022/06/21 04:53:09;;;;;;;6.10;4.15;;;11.60;99.90;;;;;;4982739;28;20039;-75
2022/06/21 04:56:12;;;;;;;4.50;3.60;;;11.70;99.90;;;;;;4993078;28;20051;-76
2022/06/21 04:58:38;;;;;;;3.77;3.33;;;11.90;99.90;;;;;;4969424;28;20966;-76
2022/06/21 05:01:29;;;;;;;7.00;3.90;;;12.00;99.90;;;;;;4988790;28;20054;-76
2022/06/21 05:03:52;;;;;;;3.70;3.03;;;12.10;99.90;;;;;;4977911;28;20054;-76
2022/06/21 05:06:18;;;;;;;6.35;3.72;;;12.20;99.90;;;;;;4981687;28;20132;-76
2022/06/21 05:08:47;;;;;;;4.65;4.25;;;12.30;99.90;;;;;;4980469;28;20053;-76
2022/06/21 05:11:13;;;;;;;5.75;3.50;;;12.30;99.90;;;;;;4980139;28;20096;-75
2022/06/21 05:13:42;;;;;;;3.97;2.80;;;12.40;99.90;;;;;;4979552;28;20160;-74
2022/06/21 05:16:34;;;;;;;5.22;3.33;;;12.60;99.90;;;;;;4975787;28;20066;-76
2022/06/21 05:19:19;;;;;;;5.38;3.83;;;12.80;99.90;;;;;;4986374;28;20060;-77
2022/06/21 05:21:52;;;;;;;4.68;3.80;;;12.90;99.90;;;;;;4983258;28;20209;-76
2022/06/21 05:24:19;;;;;;;4.07;3.63;;;12.90;99.90;;;;;;4974699;28;20085;-76
2022/06/21 05:27:14;;;;;;;5.57;3.60;;;13.00;99.90;;;;;;4980670;28;20046;-75
2022/06/21 05:30:08;;;;;;;4.47;3.50;;;13.10;99.90;;;;;;4974341;28;20161;-76
2022/06/21 05:32:49;;;;;;;5.25;3.08;;;13.10;99.90;;;;;;4988673;28;20497;-76
2022/06/21 05:35:17;;;;;;;7.85;4.80;;;13.20;99.90;;;;;;4987697;28;20058;-76
2022/06/21 05:38:09;;;;;;;3.75;2.83;;;13.30;99.90;;;;;;4969252;28;20065;-73
2022/06/21 05:40:55;;;;;;;6.15;3.97;;;13.30;99.90;;;;;;4961153;28;20055;-75
2022/06/21 05:43:49;;;;;;;3.25;2.88;;;13.40;99.90;;;;;;4951064;28;20054;-74
2022/06/21 05:46:16;;;;;;;;;;;13.50;99.90;;;;;;4964384;28;20062;-75
2022/06/21 05:48:43;;;;;;;2.67;2.47;;;13.60;99.90;;;;;;4969966;28;19926;-73
2022/06/21 05:51:24;;;;;;;5.70;3.78;;;13.70;99.90;;;;;;4966812;28;20811;-74
2022/06/21 05:53:55;;;;;;;8.20;4.22;;;13.90;99.90;;;;;;4968057;28;20093;-75
2022/06/21 05:56:25;;;;;;;8.90;4.20;;;14.00;99.90;;;;;;4964297;28;20046;-76
2022/06/21 05:59:04;;;;;;;5.97;3.28;;;14.10;99.90;;;;;;4972309;28;20122;-73
2022/06/21 06:01:39;;;;;;;5.82;3.95;;;14.30;99.90;;;;;;4976409;28;20225;-76
2022/06/21 06:04:23;;;;;;;4.20;3.83;;;14.40;99.90;;;;;;4991619;28;20050;-75
2022/06/21 06:06:48;;;;;;;6.03;3.83;;;14.50;99.90;;;;;;4983887;28;20078;-76
2022/06/21 06:09:25;;;;;;;4.50;3.60;;;14.70;99.90;;;;;;4988945;28;20057;-74
2022/06/21 06:12:00;;;;;;;3.17;2.88;;;15.00;99.90;;;;;;4986637;28;20081;-77
2022/06/21 06:14:39;;;;;;;2.90;2.20;;;15.20;99.90;;;;;;4983365;28;20049;-77
2022/06/21 06:17:20;;;;;;;3.83;2.60;;;15.50;99.90;;;;;;4978660;28;20728;-76
2022/06/21 06:20:12;;;;;;;3.22;2.20;;;16.00;99.90;;;;;;4969351;28;21217;-74
2022/06/21 06:23:10;;;;;;;6.10;2.28;;;17.10;99.90;;;;;;4975423;28;20050;-75
2022/06/21 06:25:54;;;;;;;7.10;2.40;;;18.70;99.90;;;;;;4928321;28;20192;-77
2022/06/21 06:28:34;;;;;;;2.13;1.92;;;19.70;99.90;;;;;;4982733;28;20058;-77
2022/06/21 06:31:00;;;;;;;7.28;2.33;;;20.70;99.90;;;;;;4983237;28;20042;-77
2022/06/21 06:33:30;;;;;;;3.22;2.72;;;21.50;99.90;;;;;;4987981;28;20073;-73
2022/06/21 06:35:57;;;;;;;2.85;2.22;;;22.00;99.90;;;;;;4987603;28;20065;-75
2022/06/21 06:38:23;;;;;;;4.00;2.42;;;21.60;99.90;;;;;;4990050;28;20804;-75
2022/06/21 06:40:56;;;;;;;5.95;2.40;;;20.90;99.90;;;;;;4987133;28;20042;-74
2022/06/21 06:43:32;;;;;;;5.55;2.40;;;20.30;99.90;;;;;;4972086;28;20041;-75
2022/06/21 06:45:58;;;;;;;3.10;2.67;;;20.20;99.90;;;;;;4983885;28;20077;-76
2022/06/21 06:48:32;;;;;;;3.63;2.20;;;20.50;99.90;;;;;;4991903;28;20148;-76
2022/06/21 06:51:37;;;;;;;2.42;1.92;;;21.10;99.90;;;;;;4987462;28;20049;-76
2022/06/21 06:54:10;;;;;;;3.28;1.90;;;20.80;96.20;;;;;;4983440;28;20050;-75
2022/06/21 06:57:05;;;;;;;3.53;1.90;;;20.20;99.40;;;;;;4983512;28;20173;-74
2022/06/21 06:59:31;;;;;;;2.53;2.13;;;19.80;97.80;;;;;;4989385;28;20049;-75
2022/06/21 07:02:04;;;;;;;5.53;2.22;;;19.90;99.90;;;;;;4985187;28;20084;-76
2022/06/21 07:04:35;;;;;;;;;;;20.80;98.50;;;;;;4988574;28;20077;-75
2022/06/21 07:07:11;;;;;;;3.88;2.30;;;21.50;93.30;;;;;;4964261;28;19932;-75
2022/06/21 07:09:44;;;;;;;5.53;2.35;;;22.20;96.50;;;;;;4965616;28;20146;-75
2022/06/21 07:12:30;;;;;;;4.07;2.03;;;23.10;94.80;;;;;;4987924;28;20041;-73
2022/06/21 07:14:57;;;;;;;2.88;2.58;;;23.90;95.00;;;;;;4990301;28;20058;-76
2022/06/21 07:17:50;;;;;;;5.18;2.15;;;23.60;94.20;;;;;;4986043;28;20052;-77
2022/06/21 07:20:37;;;;;;;4.57;2.30;;;23.30;90.00;;;;;;4963204;28;20345;-77
2022/06/21 07:23:12;;;;;;;5.35;2.65;;;23.30;91.80;;;;;;4963221;28;20205;-76
2022/06/21 07:25:53;;;;;;;5.20;2.78;;;23.80;94.20;;;;;;4978040;28;20136;-75
2022/06/21 07:28:59;;;;;;;4.35;2.47;;;24.40;91.10;;;;;;4970537;28;20053;-77
2022/06/21 07:31:47;;;;;;;2.55;1.92;;;24.90;86.70;;;;;;4962964;28;20058;-78
2022/06/21 07:34:42;;;;;;;5.53;2.22;;;25.10;86.30;;;;;;4987929;28;20054;-76
2022/06/21 07:37:36;;;;;;;2.20;1.90;;;25.40;88.50;;;;;;4979068;28;20073;-78
2022/06/21 07:40:10;;;;;;;3.55;2.35;;;26.00;86.60;;;;;;4977307;28;20058;-80
2022/06/21 07:42:57;;;;;;;3.20;1.88;;;26.10;90.90;;;;;;4991024;28;20046;-79
2022/06/21 07:45:38;;;;;;;2.58;1.80;;;25.80;85.70;;;;;;4989302;28;20149;-71
2022/06/21 07:48:15;;;;;;;3.72;1.77;;;25.70;86.40;;;;;;4970729;28;20157;-72
2022/06/21 07:50:51;;;;;;;4.57;2.25;;;25.00;85.70;;;;;;4979851;28;20042;-70
2022/06/21 07:54:09;;;;;;;4.03;2.60;;;23.80;89.00;;;;;;4976524;28;20104;-71
2022/06/21 07:56:40;;;;;;;5.28;2.22;;;23.80;87.00;;;;;;4899214;29;20801;-70
2022/06/21 07:59:20;;;;;;;4.95;2.40;;;24.40;88.10;;;;;;4897385;29;20083;-71
2022/06/21 08:07:48;;;;;;;3.30;1.75;;;26.70;82.50;;;;;;4982583;28;20615;-70
2022/06/21 08:10:23;;;;;;;3.30;2.67;;;27.70;86.00;;;;;;4976925;28;20482;-71
2022/06/21 08:12:49;;;;;;;3.85;2.38;;;26.90;80.20;;;;;;4966834;28;20042;-70
2022/06/21 08:15:16;;;;;;;7.22;3.15;;;25.90;84.60;;;;;;4974597;28;20050;-71
2022/06/21 08:18:01;;;;;;;3.13;2.30;;;25.20;85.30;;;;;;4971058;28;20054;-71
2022/06/21 08:20:36;;;;;;;3.67;2.78;;;24.40;83.30;;;;;;4977899;28;20730;-70
2022/06/21 08:23:25;;;;;;;2.58;1.90;;;24.00;86.20;;;;;;4975604;28;20055;-70
2022/06/21 08:26:06;;;;;;;2.38;2.05;;;23.40;84.60;;;;;;4979772;28;20120;-71
2022/06/21 08:28:50;;;;;;;2.95;1.52;;;23.10;85.00;;;;;;4979116;28;20050;-70
2022/06/21 08:31:32;;;;;;;3.22;2.20;;;23.60;85.00;;;;;;4980194;28;20082;-70
2022/06/21 08:34:03;;;;;;;6.15;2.63;;;24.50;83.80;;;;;;4952836;28;20125;-70
2022/06/21 08:36:33;;;;;;;4.32;2.13;;;25.10;86.00;;;;;;4977469;28;20107;-70
2022/06/21 08:39:07;;;;;;;3.25;2.47;;;25.50;84.90;;;;;;4961654;28;20050;-70
2022/06/21 08:41:57;;;;;;;2.17;1.98;;;25.80;83.00;;;;;;4977132;28;20064;-70
2022/06/21 08:44:25;;;;;;;4.88;2.33;;;26.20;82.30;;;;;;4978532;28;20046;-70
2022/06/21 08:47:01;;;;;;;2.03;1.88;;;26.40;83.50;;;;;;4976636;28;20212;-70
2022/06/21 08:49:52;;;;;;;2.83;2.20;;;26.80;78.90;;;;;;4976811;28;20073;-71
2022/06/21 08:52:42;;;;;;;5.97;2.05;;;27.10;78.80;;;;;;4976603;28;20042;-70
2022/06/21 08:55:42;;;;;;;4.10;1.75;;;27.40;79.10;;;;;;4942052;28;20589;-70
2022/06/21 08:58:11;;;;;;;3.42;1.52;;;27.20;74.70;;;;;;4974102;28;20046;-71
2022/06/21 09:00:59;;;;;;;5.95;1.73;;;27.60;79.50;;;;;;4970189;28;20045;-71
2022/06/21 09:03:37;;;;;;;2.40;1.20;;;27.80;75.10;;;;;;4960348;28;20054;-71
2022/06/21 09:06:15;;;;;;;3.65;1.73;;;27.50;72.80;;;;;;4992872;28;20486;-70
2022/06/21 09:09:24;;;;;;;3.33;1.63;;;26.80;75.30;;;;;;4958822;28;20054;-71
2022/06/21 09:12:08;;;;;;;3.05;1.70;;;26.40;74.40;;;;;;4981272;28;20127;-71
2022/06/21 09:15:01;;;;;;;2.30;1.50;;;26.60;78.20;;;;;;4970141;28;20754;-70
2022/06/21 09:18:21;;;;;;;4.90;2.30;;;27.30;75.00;;;;;;4981121;28;20057;-70
2022/06/21 09:21:10;;;;;;;3.05;1.50;;;28.00;73.60;;;;;;4900635;29;20063;-71
2022/06/21 09:23:47;;;;;;;2.28;1.30;;;28.40;73.50;;;;;;4976717;28;20150;-71
2022/06/21 09:26:28;;;;;;;2.55;1.10;;;28.60;75.00;;;;;;4971966;28;20054;-71
2022/06/21 09:29:14;;;;;;;2.70;1.50;;;28.80;71.60;;;;;;4982109;28;20081;-71
2022/06/21 09:32:03;;;;;;;5.43;1.67;;;28.60;69.70;;;;;;4963879;28;20719;-71
2022/06/21 09:34:34;;;;;;;3.28;1.95;;;28.60;71.20;;;;;;4973148;28;20085;-71
2022/06/21 09:37:25;;;;;;;4.88;1.98;;;28.50;70.70;;;;;;4979938;28;20729;-71
2022/06/21 09:39:53;;;;;;;2.40;1.38;;;28.50;68.20;;;;;;4981359;28;20058;-72
2022/06/21 09:42:34;;;;;;;1.63;1.40;;;28.40;71.90;;;;;;4969324;28;20422;-70
2022/06/21 09:45:37;;;;;;;5.72;1.25;;;28.00;68.20;;;;;;4971824;28;20058;-70
2022/06/21 09:48:17;;;;;;;1.30;1.20;;;27.40;69.60;;;;;;4986850;28;20061;-70
2022/06/21 09:50:59;;;;;;;3.35;1.65;;;26.60;72.50;;;;;;4980383;28;20050;-70
2022/06/21 09:53:38;;;;;;;2.00;1.50;;;26.30;71.10;;;;;;4983495;28;20046;-70
2022/06/21 09:56:42;;;;;;;1.95;1.33;;;26.60;69.70;;;;;;4979112;28;20057;-70
2022/06/21 09:59:26;;;;;;;3.63;1.40;;;27.00;70.50;;;;;;4945486;28;20080;-70
2022/06/21 10:02:16;;;;;;;1.58;1.20;;;27.50;69.50;;;;;;4966633;28;20386;-70
2022/06/21 10:04:49;;;;;;;1.38;1.00;;;27.40;71.80;;;;;;4979305;28;20068;-70
2022/06/21 10:07:32;;;;;;;2.55;1.08;;;27.40;72.50;;;;;;4978455;28;20051;-70
2022/06/21 10:10:34;;;;;;;4.25;1.38;;;27.90;68.70;;;;;;4977231;28;20152;-70
2022/06/21 10:13:19;;;;;;;;;;;28.00;68.50;;;;;;4980768;28;20153;-70
2022/06/21 10:16:08;;;;;;;1.48;1.27;;;27.80;67.90;;;;;;4973389;28;20079;-70
2022/06/21 10:18:56;;;;;;;1.98;0.98;;;27.80;70.20;;;;;;4979385;28;20114;-70
2022/06/21 10:21:41;;;;;;;4.63;1.30;;;27.40;69.00;;;;;;4978286;28;21401;-70
2022/06/21 10:24:28;;;;;;;2.78;1.65;;;26.60;71.70;;;;;;4973242;28;20053;-70
2022/06/21 10:27:06;;;;;;;2.33;1.50;;;25.90;71.40;;;;;;4969184;28;20186;-70
2022/06/21 10:29:46;;;;;;;4.78;1.75;;;25.70;71.50;;;;;;4968063;28;20091;-70
2022/06/21 10:32:31;;;;;;;2.60;1.52;;;25.50;71.40;;;;;;4964256;28;20054;-70
2022/06/21 10:35:06;;;;;;;3.15;1.60;;;25.20;72.60;;;;;;4997921;28;20237;-69
2022/06/21 10:38:02;;;;;;;5.05;1.63;;;25.00;73.10;;;;;;4977770;28;20043;-70
2022/06/21 10:40:33;;;;;;;5.80;1.70;;;25.00;70.60;;;;;;4979901;28;20050;-70
2022/06/21 10:43:14;;;;;;;5.43;1.52;;;25.40;72.60;;;;;;4980629;28;20514;-70
2022/06/21 10:45:47;;;;;;;1.45;1.35;;;25.80;70.90;;;;;;4981729;28;20046;-70
2022/06/21 10:48:48;;;;;;;3.47;1.25;;;26.00;71.40;;;;;;4982914;28;20109;-70
2022/06/21 10:51:27;;;;;;;2.58;1.10;;;26.40;68.00;;;;;;4974946;28;20399;-70
2022/06/21 10:54:12;;;;;;;0.98;0.88;;;26.00;67.00;;;;;;4971304;28;20046;-70
2022/06/21 10:57:19;;;;;;;2.88;1.20;;;25.90;68.40;;;;;;4993397;28;20144;-70
2022/06/21 11:03:08;;;;;;;;;;;24.70;70.70;;;;;;4985305;28;20457;-70
2022/06/21 11:06:02;;;;;;;2.60;1.02;;;24.80;71.90;;;;;;4989617;28;20020;-71
2022/06/21 11:09:05;;;;;;;3.03;1.20;;;25.30;71.80;;;;;;4985699;28;20466;-70
2022/06/21 11:11:43;;;;;;;1.75;1.40;;;25.70;72.20;;;;;;4978348;28;20054;-71
2022/06/21 11:14:15;;;;;;;1.30;1.20;;;25.80;69.90;;;;;;4979518;28;20050;-70
2022/06/21 11:17:02;;;;;;;2.92;1.30;;;25.80;68.30;;;;;;4971848;28;20112;-70
2022/06/21 11:19:34;;;;;;;2.17;1.55;;;25.60;68.10;;;;;;4983478;28;20054;-70
2022/06/21 11:22:11;;;;;;;;;;;24.80;67.80;;;;;;4980046;28;20069;-70
2022/06/21 11:24:50;;;;;;;1.73;1.13;;;24.40;69.70;;;;;;4965200;28;19973;-71
2022/06/21 11:27:24;;;;;;;0.88;0.88;;;24.70;71.00;;;;;;4975187;28;20058;-70
2022/06/21 11:30:13;;;;;;;2.85;1.20;;;25.10;71.80;;;;;;4986672;28;20132;-70
2022/06/21 11:33:09;;;;;;;2.28;1.10;;;25.50;70.70;;;;;;4963139;28;20764;-70
2022/06/21 11:36:05;;;;;;;3.08;1.98;;;25.70;69.70;;;;;;4976459;28;20046;-70
2022/06/21 11:38:42;;;;;;;1.83;0.98;;;25.90;67.50;;;;;;4981879;28;20054;-70
2022/06/21 11:44:44;;;;;;;3.25;1.23;;;25.90;68.90;;;;;;4981947;28;20671;-70
2022/06/21 11:47:18;;;;;;;1.38;1.27;;;26.00;67.30;;;;;;4978915;28;20081;-70
2022/06/21 11:50:17;;;;;;;1.95;1.58;;;25.70;67.10;;;;;;4976099;28;20065;-72
2022/06/21 11:52:58;;;;;;;3.30;1.30;;;25.20;66.40;;;;;;4988769;28;20594;-71
2022/06/21 11:55:39;;;;;;;4.75;1.38;;;24.50;66.70;;;;;;4989291;28;20893;-70
2022/06/21 11:58:07;;;;;;;1.35;1.20;;;24.20;68.40;;;;;;4989850;28;20081;-70
2022/06/21 12:00:46;;;;;;;3.85;1.30;;;24.20;68.90;;;;;;4990904;28;20047;-70
2022/06/21 12:03:24;;;;;;;2.35;0.93;;;24.40;69.60;;;;;;5007063;28;20362;-70
2022/06/21 12:05:58;;;;;;;3.00;1.48;;;24.80;69.20;;;;;;4994509;28;20122;-70
2022/06/21 12:08:37;;;;;;;1.65;1.17;;;25.20;69.10;;;;;;4975244;28;20058;-70
2022/06/21 12:11:41;;;;;;;2.45;1.20;;;25.40;68.50;;;;;;5012908;28;20144;-70
2022/06/21 12:14:14;;;;;;;2.83;1.25;;;25.50;66.10;;;;;;5009012;28;20083;-70
2022/06/21 12:17:01;;;;;;;1.92;0.98;;;25.60;69.10;;;;;;4991402;28;20054;-71
2022/06/21 12:19:47;;;;;;;2.72;1.38;;;25.70;66.90;;;;;;4998192;28;20050;-70
2022/06/21 12:22:38;;;;;;;2.03;1.38;;;25.80;68.00;;;;;;4996369;28;20309;-71
2022/06/21 12:25:05;;;;;;;3.42;1.65;;;25.20;67.20;;;;;;4998885;28;20066;-71
2022/06/21 12:27:30;;;;;;;9.65;1.38;;;25.10;67.60;;;;;;5000558;28;20046;-71
2022/06/21 12:30:01;;;;;;;2.17;0.98;;;25.30;68.60;;;;;;4985811;28;20050;-70
2022/06/21 12:32:28;;;;;;;2.60;1.50;;;24.70;66.40;;;;;;5002140;28;20042;-71
2022/06/21 12:35:02;;;;;;;2.92;1.23;;;24.10;66.50;;;;;;4987495;28;20073;-71
2022/06/21 12:37:34;;;;;;;1.60;1.13;;;24.10;67.50;;;;;;5004412;28;20046;-71
2022/06/21 12:40:18;;;;;;;2.30;1.20;;;24.20;67.00;;;;;;5001288;28;20038;-70
2022/06/21 12:43:07;;;;;;;2.38;1.20;;;24.40;66.70;;;;;;5005974;28;20134;-70
2022/06/21 12:45:45;;;;;;;1.10;1.05;;;24.40;67.20;;;;;;4988602;28;20058;-70
2022/06/21 12:48:45;;;;;;;1.95;1.17;;;24.70;69.00;;;;;;5005254;28;20064;-70
2022/06/21 12:51:41;;;;;;;1.55;1.13;;;24.90;68.50;;;;;;5006209;28;20066;-70
2022/06/21 12:54:16;;;;;;;1.75;0.95;;;25.00;67.50;;;;;;5004883;28;20031;-70
2022/06/21 12:57:10;;;;;;;3.22;1.23;;;25.20;68.80;;;;;;5010605;28;20046;-71
2022/06/21 12:59:54;;;;;;;1.65;1.33;;;25.10;67.20;;;;;;5008362;28;20049;-70
2022/06/21 13:02:45;;;;;;;2.97;1.25;;;25.10;69.40;;;;;;4986848;28;20070;-71
2022/06/21 13:05:31;;;;;;;3.17;1.10;;;25.10;69.60;;;;;;5003351;28;20034;-70
2022/06/21 13:08:18;;;;;;;2.72;1.65;;;25.20;69.70;;;;;;4964807;28;20086;-70
2022/06/21 13:10:49;;;;;;;1.58;1.48;;;25.20;67.80;;;;;;4989163;28;20120;-71
2022/06/21 13:13:34;;;;;;;1.73;1.05;;;24.90;68.50;;;;;;4991545;28;20611;-70
2022/06/21 13:16:13;;;;;;;1.42;0.98;;;24.80;67.20;;;;;;4983831;28;20054;-70
2022/06/21 13:18:55;;;;;;;2.00;1.10;;;24.80;67.00;;;;;;4993175;28;20046;-70
2022/06/21 13:21:45;;;;;;;1.30;1.20;;;24.80;68.90;;;;;;5005259;28;20062;-70
2022/06/21 13:24:22;;;;;;;1.80;1.15;;;24.90;66.60;;;;;;4994420;28;20038;-71
2022/06/21 13:27:08;;;;;;;2.80;1.30;;;24.90;66.90;;;;;;4997628;28;20482;-71
2022/06/21 13:30:02;;;;;;;2.83;1.30;;;25.00;67.80;;;;;;4981492;28;20054;-71
2022/06/21 13:32:32;;;;;;;1.38;1.00;;;24.90;66.50;;;;;;4992478;28;20128;-70
2022/06/21 13:35:19;;;;;;;2.60;1.10;;;24.90;68.00;;;;;;4997610;28;20117;-70
2022/06/21 13:37:59;;;;;;;2.83;1.17;;;25.00;67.10;;;;;;4992399;28;20081;-70
2022/06/21 13:40:50;;;;;;;3.80;1.38;;;25.20;67.90;;;;;;4988976;28;20186;-70
2022/06/21 13:43:39;;;;;;;1.88;1.50;;;25.20;68.20;;;;;;4999775;28;20070;-70
2022/06/21 13:46:26;;;;;;;1.75;1.10;;;25.30;69.00;;;;;;4993805;28;20067;-70
2022/06/21 13:48:58;;;;;;;1.30;1.20;;;25.30;69.00;;;;;;4992621;28;20385;-71
2022/06/21 13:51:37;;;;;;;1.70;1.40;;;25.30;69.20;;;;;;4990004;28;20074;-70
2022/06/21 13:54:23;;;;;;;3.60;1.48;;;25.30;69.10;;;;;;4978737;28;20548;-71
2022/06/21 13:57:13;;;;;;;1.67;1.10;;;25.30;68.50;;;;;;4982501;28;20137;-70
2022/06/21 13:59:45;;;;;;;1.42;1.33;;;25.40;70.40;;;;;;4994515;28;20190;-70
2022/06/21 14:02:29;;;;;;;2.47;1.20;;;25.60;69.40;;;;;;4979638;28;20050;-70
2022/06/21 14:05:05;;;;;;;3.80;1.25;;;25.90;68.80;;;;;;4987285;28;20105;-71
2022/06/21 14:07:44;;;;;;;2.08;1.20;;;26.00;68.30;;;;;;4976265;28;20061;-71